Airfield :
LOGIN :

Register | Disclaimer

   EN    FR    IT 

 










Legend :    VFR   Marginal VFR   IFR   Intensive IFR   Very Intensive IFR
Visi :
Ceiling :
>= 8 km
>= 3000ft
5 to 8 km
1000 to 3000 ft
1500m to 5 km
500 to 1000 ft
800 to 1500m
200 to 500 ft
< 800m
< 200 ft
Symbols :   Thunderstorms  Fog  Heavy snow  Heavy precipitations  Wind > 20 kt
SIGMETs :     Misc.  Thunderstorms  Icing  Turbulence  Mountain Waves  Volcanic Ashes







- Airport Elevation : 101 ft
- IATA code : HAD


ESMT - Halmstad

CURRENT METAR :
  • 220020Z AUTO 32010KT 9999 OVC006/// 06/05 Q1029

EXPIRED METARs :
  • 212350Z AUTO 32012KT 9999 OVC006/// 06/05 Q1029
  • 212320Z AUTO 29010KT 9999 FEW006/// OVC008/// 06/06 Q1029
  • 212250Z AUTO 30007KT 9999 FEW003/// BKN006/// OVC010/// 07/06 Q1029
  • 212220Z AUTO 30009KT 6000 FEW001/// OVC003/// 07/06 Q1028
  • 212150Z AUTO 30011KT 0900 R01/P2000N R19/P2000N VV002 07/06 Q1029

Expired Forecast.
No reported NOTAMs for that airfield.



MET'MAP, your aeronautical weather chart ! - Copyright ORBIFLY December 2007 - Disclaimer

ORBIFLY MET'MAP TEAM :

Programming & Development : Alexandra Zaïnal
Concept & Development : Baudouin d'Aumeries
Co-Development & Prog : Marc-Olivier Méhu
Technical & hardware support : Manuel Goepfert

Contact : metmap@orbifly.com




SOURCES & CREDITS :

   NOAA